AFL769 ULLI-UUEE
Flight info
| Callsign | AFL769 |
|---|---|
| Flight time | N/A |
| Altitude | 35000 |
| Route | SUGIN1A SUGIN T873 NIRGI T73 NAMIN NAMIN3E |
| Aircraft | A20N/M-V/N |
Departure
| Time | 2026-04-30 14:54 |
|---|---|
| Airport | Pulkovo Airport (ULLI) |
Arrival
| Time | N/A |
|---|---|
| Airport | Sheremetyevo International Airport (UUEE) |
| Time | Latitude | Longitude | Altitude | Speed | Heading |
|---|---|---|---|---|---|
| 2026-04-30 14:20 | 59.80267 | 30.26569 | 82 ft | 0 kts | 106° |
| 2026-04-30 14:45 | 59.80267 | 30.26570 | 82 ft | 0 kts | 107° |
| 2026-04-30 14:46 | 59.80264 | 30.26588 | 82 ft | 2 kts | 107° |
| 2026-04-30 14:46 | 59.80260 | 30.26632 | 82 ft | 4 kts | 88° |
| 2026-04-30 14:46 | 59.80284 | 30.26685 | 82 ft | 7 kts | 22° |
| 2026-04-30 14:46 | 59.80319 | 30.26710 | 81 ft | 8 kts | 18° |
| 2026-04-30 14:47 | 59.80386 | 30.26748 | 80 ft | 0 kts | 17° |
| 2026-04-30 14:47 | 59.80398 | 30.26844 | 79 ft | 11 kts | 105° |
| 2026-04-30 14:47 | 59.80375 | 30.26998 | 80 ft | 12 kts | 106° |
| 2026-04-30 14:47 | 59.80335 | 30.27272 | 79 ft | 21 kts | 106° |
| 2026-04-30 14:48 | 59.80286 | 30.27603 | 78 ft | 21 kts | 107° |
| 2026-04-30 14:48 | 59.80247 | 30.27880 | 76 ft | 21 kts | 104° |
| 2026-04-30 14:48 | 59.80212 | 30.28112 | 74 ft | 17 kts | 108° |
| 2026-04-30 14:48 | 59.80177 | 30.28336 | 74 ft | 17 kts | 106° |
| 2026-04-30 14:49 | 59.80145 | 30.28559 | 74 ft | 16 kts | 106° |
| 2026-04-30 14:49 | 59.80110 | 30.28788 | 73 ft | 19 kts | 106° |
| 2026-04-30 14:49 | 59.80069 | 30.29062 | 72 ft | 19 kts | 107° |
| 2026-04-30 14:49 | 59.80030 | 30.29326 | 71 ft | 19 kts | 105° |
| 2026-04-30 14:50 | 59.79970 | 30.29730 | 73 ft | 14 kts | 105° |
| 2026-04-30 14:50 | 59.79942 | 30.29919 | 74 ft | 14 kts | 105° |
| 2026-04-30 14:51 | 59.80043 | 30.30251 | 74 ft | 13 kts | 44° |
| 2026-04-30 14:51 | 59.80107 | 30.30287 | 74 ft | 8 kts | 336° |
| 2026-04-30 14:51 | 59.80123 | 30.30239 | 74 ft | 0 kts | 285° |
| 2026-04-30 14:54 | 59.80267 | 30.29352 | 71 ft | 99 kts | 285° |
| 2026-04-30 14:54 | 59.80805 | 30.25570 | 680 ft | 157 kts | 285° |
| 2026-04-30 14:55 | 59.81476 | 30.21062 | 1755 ft | 188 kts | 286° |
| 2026-04-30 14:55 | 59.81857 | 30.18487 | 2295 ft | 204 kts | 287° |